createdAt,value
2017-11-16T00:01:10.473Z,16.73
2017-11-16T00:03:40.101Z,18.00
2017-11-16T00:06:08.994Z,17.13
2017-11-16T00:08:37.879Z,17.43
2017-11-16T00:11:06.732Z,17.20
2017-11-16T00:13:36.338Z,18.00
2017-11-16T00:16:05.985Z,16.50
2017-11-16T00:18:34.848Z,16.37
2017-11-16T00:21:04.466Z,18.23
2017-11-16T00:23:33.338Z,18.67
2017-11-16T00:26:02.977Z,17.33
2017-11-16T00:28:31.824Z,19.80
2017-11-16T00:31:00.665Z,19.70
2017-11-16T00:33:29.524Z,18.33
2017-11-16T00:35:59.147Z,19.17
2017-11-16T00:38:28.006Z,18.33
2017-11-16T00:40:57.524Z,19.83
2017-11-16T00:43:27.151Z,19.17
2017-11-16T00:45:56.090Z,19.10
2017-11-16T00:48:24.911Z,18.73
2017-11-16T00:50:53.984Z,19.87
2017-11-16T00:53:23.246Z,19.70
2017-11-16T00:55:52.541Z,19.50
2017-11-16T00:58:22.908Z,18.40
2017-11-16T01:00:51.780Z,19.80
2017-11-16T01:03:21.427Z,18.90
2017-11-16T01:05:50.276Z,19.90
2017-11-16T01:08:19.885Z,19.70
2017-11-16T01:10:49.508Z,19.63
2017-11-16T01:13:18.350Z,17.93
2017-11-16T01:15:47.216Z,19.90
2017-11-16T01:18:16.055Z,16.10
2017-11-16T01:20:45.773Z,19.20
2017-11-16T01:23:15.419Z,18.53
2017-11-16T01:25:44.274Z,16.10
2017-11-16T01:28:13.161Z,15.23
2017-11-16T01:30:42.759Z,16.43
2017-11-16T01:33:12.378Z,15.60
2017-11-16T01:35:41.289Z,16.40
2017-11-16T01:38:10.157Z,15.33
2017-11-16T01:40:39.753Z,16.67
2017-11-16T01:43:09.376Z,17.33
2017-11-16T01:45:38.227Z,17.90
2017-11-16T01:48:07.081Z,16.53
2017-11-16T01:50:35.921Z,15.20
2017-11-16T01:53:05.562Z,15.83
2017-11-16T01:55:34.405Z,15.10
2017-11-16T01:58:03.253Z,14.43
2017-11-16T02:00:32.868Z,16.30
2017-11-16T02:03:02.485Z,15.50
2017-11-16T02:05:31.327Z,14.70
2017-11-16T02:08:00.188Z,15.40
2017-11-16T02:10:29.027Z,15.93
2017-11-16T02:12:58.663Z,15.60
2017-11-16T02:15:27.509Z,15.70
2017-11-16T02:17:56.998Z,16.40
2017-11-16T02:20:25.843Z,15.83
2017-11-16T02:22:54.749Z,16.63
2017-11-16T02:25:23.815Z,15.63
2017-11-16T02:27:52.635Z,16.50
2017-11-16T02:30:21.621Z,15.87
2017-11-16T02:32:50.476Z,16.60
2017-11-16T02:35:20.088Z,16.57
2017-11-16T02:37:49.717Z,14.93
2017-11-16T02:40:18.574Z,12.37
2017-11-16T02:42:48.202Z,13.50
2017-11-16T02:45:17.741Z,13.70
2017-11-16T02:47:46.610Z,12.30
2017-11-16T02:50:16.212Z,13.77
2017-11-16T02:52:45.060Z,13.40
2017-11-16T02:55:13.942Z,12.90
2017-11-16T02:57:43.558Z,14.10
2017-11-16T03:00:13.180Z,13.97
2017-11-16T03:02:42.043Z,13.47
2017-11-16T03:05:11.675Z,12.83
2017-11-16T03:07:40.521Z,12.37
2017-11-16T03:10:10.879Z,12.40
2017-11-16T03:12:39.733Z,13.50
2017-11-16T03:15:08.587Z,12.80
2017-11-16T03:17:37.418Z,13.00
2017-11-16T03:20:06.260Z,12.97
2017-11-16T03:22:35.103Z,14.33
2017-11-16T03:25:04.708Z,13.97
2017-11-16T03:27:34.744Z,15.00
2017-11-16T03:30:04.017Z,13.80
2017-11-16T03:32:32.863Z,13.73
2017-11-16T03:35:01.745Z,12.67
2017-11-16T03:37:30.613Z,12.80
2017-11-16T03:39:59.449Z,11.93
2017-11-16T03:42:28.308Z,12.97
2017-11-16T03:44:57.252Z,13.80
2017-11-16T03:47:26.063Z,11.67
2017-11-16T03:49:55.696Z,10.03
2017-11-16T03:52:24.598Z,10.83
2017-11-16T03:54:53.688Z,11.77
2017-11-16T03:57:22.541Z,12.40
2017-11-16T03:59:51.380Z,11.00
2017-11-16T04:02:20.242Z,10.77
2017-11-16T04:04:49.082Z,11.70
2017-11-16T04:07:18.690Z,10.67
2017-11-16T04:09:48.290Z,11.57
2017-11-16T04:12:18.129Z,10.27
2017-11-16T04:14:47.121Z,10.60
2017-11-16T04:17:15.974Z,11.27
2017-11-16T04:19:44.811Z,10.00
2017-11-16T04:22:13.688Z,11.63
2017-11-16T04:24:42.561Z,12.20
2017-11-16T04:27:12.166Z,13.13
2017-11-16T04:29:44.764Z,13.07
2017-11-16T04:32:13.620Z,11.53
2017-11-16T04:34:43.237Z,13.40
2017-11-16T04:37:12.893Z,12.27
2017-11-16T04:39:41.769Z,12.23
2017-11-16T04:42:10.626Z,14.30
2017-11-16T04:44:40.243Z,11.77
2017-11-16T04:47:09.120Z,13.20
2017-11-16T04:49:38.729Z,11.97
2017-11-16T04:52:08.361Z,13.47
2017-11-16T04:54:37.225Z,13.67
2017-11-16T04:57:06.051Z,13.50
2017-11-16T04:59:35.030Z,12.00
2017-11-16T05:02:03.868Z,12.90
2017-11-16T05:04:32.711Z,12.10
2017-11-16T05:07:01.566Z,13.43
2017-11-16T05:09:30.419Z,13.87
2017-11-16T05:12:00.044Z,11.77
2017-11-16T05:14:29.028Z,13.07
2017-11-16T05:16:57.868Z,12.57
2017-11-16T05:19:26.696Z,14.17
2017-11-16T05:21:56.544Z,12.87
2017-11-16T05:24:25.372Z,11.90
2017-11-16T05:26:54.999Z,11.00
2017-11-16T05:29:24.609Z,12.90
2017-11-16T05:31:54.216Z,13.53
2017-11-16T05:34:23.489Z,13.70
2017-11-16T05:36:52.336Z,11.50
2017-11-16T05:39:21.627Z,12.60
2017-11-16T05:41:50.526Z,12.30
2017-11-16T05:44:20.122Z,12.17
2017-11-16T05:46:48.975Z,11.57
2017-11-16T05:49:17.813Z,11.40
2017-11-16T05:51:46.678Z,11.50
2017-11-16T05:54:15.527Z,11.23
2017-11-16T05:56:46.744Z,11.90
2017-11-16T05:59:16.580Z,11.70
2017-11-16T06:01:46.209Z,10.57
2017-11-16T06:04:15.810Z,12.60
2017-11-16T06:06:45.415Z,12.00
2017-11-16T06:09:15.043Z,11.70
2017-11-16T06:11:43.889Z,11.57
2017-11-16T06:14:12.737Z,11.43
2017-11-16T06:16:41.559Z,11.03
2017-11-16T06:19:10.429Z,10.60
2017-11-16T06:21:39.272Z,9.73
2017-11-16T06:24:09.199Z,11.30
2017-11-16T06:26:38.032Z,10.47
2017-11-16T06:29:06.892Z,11.17
2017-11-16T06:31:35.758Z,10.10
2017-11-16T06:34:05.381Z,10.40
2017-11-16T06:36:34.276Z,10.40
2017-11-16T06:39:03.126Z,10.47
2017-11-16T06:41:32.743Z,11.73
2017-11-16T06:44:02.349Z,10.70
2017-11-16T06:46:31.977Z,12.63
2017-11-16T06:49:00.821Z,11.63
2017-11-16T06:51:29.655Z,12.20
2017-11-16T06:53:58.528Z,11.90
2017-11-16T06:56:28.131Z,11.97
2017-11-16T06:58:56.952Z,12.47
2017-11-16T07:01:25.802Z,12.00
2017-11-16T07:03:54.651Z,12.23
2017-11-16T07:06:23.491Z,12.40
2017-11-16T07:08:52.470Z,12.10
2017-11-16T07:11:23.121Z,13.70
2017-11-16T07:13:52.000Z,11.40
2017-11-16T07:16:20.837Z,13.87
2017-11-16T07:18:49.681Z,13.20
2017-11-16T07:21:18.523Z,46.97
2017-11-16T07:36:48.137Z,13.70
2017-11-16T07:39:17.763Z,16.97
2017-11-16T07:41:46.636Z,15.60
2017-11-16T07:44:16.244Z,15.43
2017-11-16T07:46:45.891Z,16.03
2017-11-16T07:49:15.136Z,15.07
2017-11-16T07:51:44.756Z,14.40
2017-11-16T07:54:14.377Z,16.37
2017-11-16T07:56:43.209Z,15.40
2017-11-16T07:59:12.081Z,15.50
2017-11-16T08:01:40.913Z,16.60
2017-11-16T08:04:11.267Z,17.70
2017-11-16T08:06:40.878Z,17.60
2017-11-16T08:09:09.751Z,16.80
2017-11-16T08:11:39.867Z,16.50
2017-11-16T08:14:09.516Z,17.60
2017-11-16T08:16:38.359Z,17.33
2017-11-16T08:19:07.188Z,17.80
2017-11-16T08:21:36.046Z,18.17
2017-11-16T08:24:05.683Z,16.00
2017-11-16T08:26:34.571Z,17.77
2017-11-16T08:29:03.416Z,16.23
2017-11-16T08:31:33.804Z,16.80
2017-11-16T08:34:02.645Z,16.13
2017-11-16T08:36:31.515Z,17.43
2017-11-16T08:39:00.366Z,16.87
2017-11-16T08:41:29.229Z,16.13
2017-11-16T08:43:58.881Z,17.80
2017-11-16T08:46:27.728Z,18.50
2017-11-16T08:48:56.587Z,19.87
2017-11-16T08:51:25.431Z,16.80
2017-11-16T08:53:54.287Z,17.27
2017-11-16T08:56:24.847Z,18.73
2017-11-16T08:58:54.282Z,17.67
2017-11-16T09:01:23.162Z,17.40
2017-11-16T09:03:52.010Z,19.60
2017-11-16T09:06:21.628Z,18.40
2017-11-16T09:08:51.249Z,18.90
2017-11-16T09:11:20.527Z,18.77
2017-11-16T09:13:50.136Z,17.73
2017-11-16T09:16:19.822Z,19.20
2017-11-16T09:18:48.633Z,17.47
2017-11-16T09:21:17.756Z,18.00
2017-11-16T09:23:46.605Z,19.10
2017-11-16T09:26:16.223Z,17.57
2017-11-16T09:28:45.836Z,17.30
2017-11-16T09:31:15.471Z,16.63
2017-11-16T09:33:44.337Z,16.93
2017-11-16T09:36:13.212Z,18.30
2017-11-16T09:38:42.862Z,17.53
2017-11-16T09:41:11.692Z,16.37
2017-11-16T09:43:40.531Z,17.77
2017-11-16T09:46:09.402Z,17.00
2017-11-16T09:48:39.028Z,17.37
2017-11-16T09:51:07.892Z,18.00
2017-11-16T09:53:37.502Z,17.33
2017-11-16T09:56:07.136Z,18.07
2017-11-16T09:58:35.970Z,16.90
2017-11-16T10:01:04.920Z,19.60
2017-11-16T10:03:33.775Z,18.70
2017-11-16T10:06:02.632Z,18.10
2017-11-16T10:08:31.572Z,18.30
2017-11-16T10:11:00.439Z,17.23
2017-11-16T10:13:29.319Z,17.33
2017-11-16T10:15:58.194Z,17.40
2017-11-16T10:18:27.079Z,18.10
2017-11-16T10:20:56.668Z,17.87
2017-11-16T10:23:26.309Z,17.93
2017-11-16T10:25:55.140Z,17.90
2017-11-16T10:28:24.033Z,17.80
2017-11-16T10:30:52.882Z,18.80
2017-11-16T10:33:21.842Z,19.10
2017-11-16T10:35:51.441Z,17.30
2017-11-16T10:38:21.091Z,19.17
2017-11-16T10:40:50.702Z,17.90
2017-11-16T10:43:19.543Z,19.07
2017-11-16T10:45:49.180Z,18.63
2017-11-16T10:48:18.025Z,16.67
2017-11-16T10:50:46.881Z,17.40
2017-11-16T10:53:15.711Z,19.25
2017-11-16T10:55:45.331Z,15.73
2017-11-16T10:58:14.941Z,16.27
2017-11-16T11:00:44.584Z,15.93
2017-11-16T11:03:14.172Z,15.00
2017-11-16T11:05:43.024Z,15.00
2017-11-16T11:08:12.747Z,16.10
2017-11-16T11:10:43.292Z,14.90
2017-11-16T11:13:12.144Z,15.50
2017-11-16T11:15:40.987Z,15.20
2017-11-16T11:18:09.832Z,15.20
2017-11-16T11:20:39.435Z,14.83
2017-11-16T11:23:08.557Z,14.03
2017-11-16T11:25:37.416Z,14.80
2017-11-16T11:28:07.135Z,16.27
2017-11-16T11:30:36.745Z,14.90
2017-11-16T11:33:06.392Z,14.53
2017-11-16T11:35:35.256Z,14.50
2017-11-16T11:38:04.860Z,13.63
2017-11-16T11:40:34.465Z,13.60
2017-11-16T11:43:04.208Z,14.57
2017-11-16T11:45:33.064Z,14.30
2017-11-16T11:48:01.929Z,15.77
2017-11-16T11:50:31.042Z,14.30
2017-11-16T11:53:00.694Z,14.60
2017-11-16T11:55:29.605Z,14.63
2017-11-16T11:57:58.452Z,16.10
2017-11-16T12:00:27.305Z,14.87
2017-11-16T12:02:56.378Z,15.13
2017-11-16T12:05:25.429Z,16.47
2017-11-16T12:07:54.334Z,16.53
2017-11-16T12:10:23.760Z,16.10
2017-11-16T12:12:52.628Z,15.27
2017-11-16T12:15:21.951Z,15.27
2017-11-16T12:17:50.820Z,15.40
2017-11-16T12:20:20.895Z,16.13
2017-11-16T12:22:49.717Z,15.83
2017-11-16T12:25:18.611Z,18.17
2017-11-16T12:27:47.489Z,19.10
2017-11-16T12:30:16.360Z,19.33
2017-11-16T12:32:45.975Z,18.60
2017-11-16T12:35:15.294Z,17.40
2017-11-16T12:37:44.136Z,17.37
2017-11-16T12:40:13.002Z,17.47
2017-11-16T12:42:41.874Z,15.60
2017-11-16T12:45:10.742Z,15.83
2017-11-16T12:47:40.360Z,15.67
2017-11-16T12:50:09.208Z,16.47
2017-11-16T12:52:38.855Z,16.63
2017-11-16T12:55:07.751Z,17.70
2017-11-16T12:57:36.620Z,16.97
2017-11-16T13:00:06.262Z,17.30
2017-11-16T13:02:35.102Z,17.10
2017-11-16T13:05:03.965Z,17.33
2017-11-16T13:07:33.601Z,17.70
2017-11-16T13:10:02.444Z,18.03
2017-11-16T13:12:32.075Z,17.50
2017-11-16T13:15:00.933Z,17.67
2017-11-16T13:17:30.558Z,17.00
2017-11-16T13:20:00.181Z,18.73
2017-11-16T13:22:29.449Z,19.00
2017-11-16T13:24:59.083Z,18.77
2017-11-16T13:27:27.937Z,18.57
2017-11-16T13:29:57.596Z,19.37
2017-11-16T13:32:26.433Z,20.00
2017-11-16T13:34:55.324Z,23.63
2017-11-16T13:37:24.178Z,21.00
2017-11-16T13:39:53.047Z,21.50
2017-11-16T13:42:21.897Z,18.03
2017-11-16T13:44:51.544Z,19.00
2017-11-16T13:47:20.382Z,17.97
2017-11-16T13:49:50.321Z,21.23
2017-11-16T13:52:19.959Z,22.40
2017-11-16T13:54:48.813Z,20.60
2017-11-16T13:57:17.659Z,20.43
2017-11-16T13:59:46.538Z,18.77
2017-11-16T14:02:15.372Z,17.60
2017-11-16T14:04:44.559Z,18.60
2017-11-16T14:07:14.160Z,19.60
2017-11-16T14:09:43.782Z,19.20
2017-11-16T14:12:12.629Z,16.70
2017-11-16T14:14:41.475Z,17.43
2017-11-16T14:17:10.329Z,17.77
2017-11-16T14:19:39.630Z,16.47
2017-11-16T14:22:09.264Z,19.00
2017-11-16T14:24:38.754Z,22.23
2017-11-16T14:27:08.445Z,21.57
2017-11-16T14:29:37.545Z,21.57
2017-11-16T14:32:07.158Z,21.13
2017-11-16T14:34:36.011Z,19.70
2017-11-16T14:37:05.628Z,17.90
2017-11-16T14:39:35.249Z,19.57
2017-11-16T14:42:04.902Z,17.23
2017-11-16T14:44:33.742Z,18.10
2017-11-16T14:47:03.397Z,16.83
2017-11-16T14:49:32.236Z,16.50
2017-11-16T14:52:01.926Z,16.03
2017-11-16T14:54:31.791Z,17.73
2017-11-16T14:57:00.647Z,16.23
2017-11-16T14:59:29.506Z,15.50
2017-11-16T15:01:58.357Z,14.83
2017-11-16T15:04:27.238Z,15.67
2017-11-16T15:06:56.076Z,15.63
2017-11-16T15:09:24.928Z,15.60
2017-11-16T15:11:53.792Z,16.20
2017-11-16T15:14:23.390Z,14.77
2017-11-16T15:16:53.000Z,15.20
2017-11-16T15:19:21.860Z,17.20
2017-11-16T15:21:50.716Z,16.80
2017-11-16T15:24:19.575Z,15.30
2017-11-16T15:26:48.438Z,15.37
2017-11-16T15:29:17.270Z,15.93
2017-11-16T15:31:47.048Z,15.07
2017-11-16T15:34:16.671Z,15.13
2017-11-16T15:36:46.297Z,15.60
2017-11-16T15:39:15.163Z,16.27
2017-11-16T15:41:44.045Z,15.47
2017-11-16T15:44:13.663Z,16.33
2017-11-16T15:46:43.285Z,16.63
2017-11-16T15:49:12.140Z,15.10
2017-11-16T15:51:40.996Z,14.90
2017-11-16T15:54:09.853Z,15.40
2017-11-16T15:56:38.722Z,14.80
2017-11-16T15:59:07.543Z,13.80
2017-11-16T16:01:36.426Z,14.37
2017-11-16T16:04:05.389Z,14.80
2017-11-16T16:06:34.233Z,14.50
2017-11-16T16:09:03.848Z,13.80
2017-11-16T16:11:32.738Z,15.13
2017-11-16T16:14:02.377Z,16.47
2017-11-16T16:16:31.230Z,16.63
2017-11-16T16:19:00.072Z,16.67
2017-11-16T16:21:28.953Z,16.80
2017-11-16T16:23:57.795Z,16.93
2017-11-16T16:26:27.441Z,17.23
2017-11-16T16:28:56.299Z,16.77
2017-11-16T16:31:25.941Z,16.90
2017-11-16T16:33:54.792Z,18.43
2017-11-16T16:36:24.401Z,16.33
2017-11-16T16:38:54.028Z,16.60
2017-11-16T16:41:23.604Z,17.17
2017-11-16T16:43:52.486Z,18.30
2017-11-16T16:46:22.878Z,16.40
2017-11-16T16:48:51.723Z,16.80
2017-11-16T16:51:21.332Z,16.13
2017-11-16T16:53:50.958Z,16.60
2017-11-16T16:56:19.831Z,16.67
2017-11-16T16:58:48.740Z,16.90
2017-11-16T17:01:17.597Z,16.27
2017-11-16T17:03:47.217Z,15.80
2017-11-16T17:06:16.086Z,15.93
2017-11-16T17:08:44.923Z,18.43
2017-11-16T17:11:13.829Z,17.03
2017-11-16T17:13:44.187Z,17.03
2017-11-16T17:16:13.075Z,16.30
2017-11-16T17:18:41.966Z,15.90
2017-11-16T17:21:10.832Z,16.50
2017-11-16T17:23:40.469Z,17.20
2017-11-16T17:26:09.429Z,16.70
2017-11-16T17:28:39.037Z,17.13
2017-11-16T17:31:08.664Z,17.23
2017-11-16T17:33:37.535Z,18.30
2017-11-16T17:36:07.145Z,18.07
2017-11-16T17:38:36.088Z,17.37
2017-11-16T17:41:04.928Z,17.30
2017-11-16T17:43:34.553Z,16.03
2017-11-16T17:46:03.483Z,19.07
2017-11-16T17:48:32.321Z,17.30
2017-11-16T17:51:01.204Z,19.77
2017-11-16T17:53:30.793Z,20.97
2017-11-16T17:55:59.997Z,20.80
2017-11-16T17:58:29.620Z,19.50
2017-11-16T18:00:59.256Z,19.70
2017-11-16T18:03:28.187Z,18.73
2017-11-16T18:05:57.025Z,19.97
2017-11-16T18:08:27.254Z,18.77
2017-11-16T18:10:56.919Z,20.50
2017-11-16T18:13:25.758Z,20.00
2017-11-16T18:15:54.616Z,19.97
2017-11-16T18:18:24.253Z,22.07
2017-11-16T18:20:53.136Z,24.17
2017-11-16T18:23:23.119Z,20.83
2017-11-16T18:25:51.962Z,19.70
2017-11-16T18:28:20.821Z,21.53
2017-11-16T18:30:50.501Z,21.33
2017-11-16T18:33:19.359Z,20.70
2017-11-16T18:35:48.222Z,20.30
2017-11-16T18:38:17.413Z,22.03
2017-11-16T18:40:47.101Z,22.80
2017-11-16T18:43:15.997Z,23.53
2017-11-16T18:45:45.940Z,22.70
2017-11-16T18:48:14.824Z,21.70
2017-11-16T18:50:44.420Z,21.03
2017-11-16T18:53:14.068Z,22.30
2017-11-16T18:55:42.890Z,23.67
2017-11-16T18:58:11.761Z,22.80
2017-11-16T19:00:40.629Z,27.13
2017-11-16T19:03:09.510Z,20.93
2017-11-16T19:05:38.381Z,22.20
2017-11-16T19:08:07.280Z,25.23
2017-11-16T19:10:37.574Z,24.60
2017-11-16T19:26:06.484Z,22.77
2017-11-16T19:28:35.352Z,23.43
2017-11-16T19:31:04.293Z,25.07
2017-11-16T19:33:34.065Z,25.00
2017-11-16T19:36:02.927Z,27.00
2017-11-16T19:38:31.882Z,25.50
2017-11-16T19:41:00.767Z,24.90
2017-11-16T19:43:29.716Z,25.57
2017-11-16T19:45:58.638Z,23.90
2017-11-16T19:48:27.475Z,25.37
2017-11-16T19:50:56.333Z,26.13
2017-11-16T19:53:26.171Z,24.10
2017-11-16T19:55:55.100Z,24.00
2017-11-16T19:58:24.061Z,24.17
2017-11-16T20:00:52.922Z,24.90
2017-11-16T20:03:21.749Z,24.37
2017-11-16T20:05:50.622Z,24.80
2017-11-16T20:08:19.527Z,26.10
2017-11-16T20:10:48.538Z,25.30
2017-11-16T20:13:17.395Z,26.23
2017-11-16T20:15:46.347Z,25.50
2017-11-16T20:18:15.972Z,24.97
2017-11-16T20:20:45.207Z,26.73
2017-11-16T20:23:14.126Z,26.50
2017-11-16T20:25:43.032Z,26.03
2017-11-16T20:28:12.666Z,27.03
2017-11-16T20:30:42.031Z,26.20
2017-11-16T20:33:11.641Z,28.50
2017-11-16T20:35:41.345Z,28.10
2017-11-16T20:51:52.226Z,30.30
2017-11-16T20:54:22.880Z,33.37
2017-11-16T20:56:51.760Z,36.03
2017-11-16T20:59:20.600Z,33.27
2017-11-16T21:01:50.204Z,36.30
2017-11-16T21:04:19.953Z,34.47
2017-11-16T21:06:48.803Z,34.10
2017-11-16T21:09:18.592Z,34.37
2017-11-16T21:11:47.481Z,35.30
2017-11-16T21:14:17.174Z,33.73
2017-11-16T21:16:46.168Z,36.37
2017-11-16T21:19:15.013Z,34.53
2017-11-16T21:21:44.115Z,37.60
2017-11-16T21:24:12.961Z,38.07
2017-11-16T21:26:42.612Z,35.70
2017-11-16T21:29:11.476Z,36.17
2017-11-16T21:31:41.142Z,36.60
2017-11-16T21:34:10.036Z,36.67
2017-11-16T21:36:38.882Z,36.97
2017-11-16T21:39:07.783Z,36.93
2017-11-16T21:41:36.628Z,36.37
2017-11-16T21:44:07.141Z,40.20
2017-11-16T21:46:35.975Z,39.97
2017-11-16T21:49:04.982Z,40.50
2017-11-16T21:51:33.808Z,38.73
2017-11-16T21:54:02.674Z,36.67
2017-11-16T21:56:31.621Z,41.17
2017-11-16T21:59:01.296Z,37.57
2017-11-16T22:01:30.133Z,38.07
2017-11-16T22:03:58.989Z,39.50
2017-11-16T22:06:28.625Z,41.50
2017-11-16T22:08:57.505Z,39.27
2017-11-16T22:11:26.376Z,38.73
2017-11-16T22:13:55.236Z,39.30
2017-11-16T22:16:24.090Z,40.97
2017-11-16T22:18:53.723Z,37.60
2017-11-16T22:21:22.579Z,39.17
2017-11-16T22:23:51.532Z,39.50
2017-11-16T22:26:20.392Z,39.60
2017-11-16T22:28:49.458Z,41.63
2017-11-16T22:31:19.097Z,39.30
2017-11-16T22:33:47.946Z,40.17
2017-11-16T22:36:18.795Z,40.63
2017-11-16T22:38:47.612Z,42.17
2017-11-16T22:41:16.477Z,43.60
2017-11-16T22:43:46.081Z,44.33
2017-11-16T22:46:15.711Z,38.80
2017-11-16T22:48:44.594Z,42.70
2017-11-16T22:51:13.443Z,41.33
2017-11-16T22:53:42.306Z,44.37
2017-11-16T22:56:11.145Z,42.50
2017-11-16T22:58:40.783Z,44.13
2017-11-16T23:01:09.641Z,46.53
2017-11-16T23:03:39.296Z,42.27
2017-11-16T23:06:08.171Z,41.20
2017-11-16T23:08:37.040Z,44.63
2017-11-16T23:11:05.909Z,40.83
2017-11-16T23:13:34.768Z,44.50
2017-11-16T23:16:04.408Z,46.10
2017-11-16T23:18:33.243Z,45.80
2017-11-16T23:21:02.080Z,48.53
2017-11-16T23:23:30.934Z,45.67
2017-11-16T23:26:00.556Z,43.70
2017-11-16T23:28:30.204Z,44.33
2017-11-16T23:30:59.054Z,44.23
2017-11-16T23:33:28.992Z,47.47
2017-11-16T23:35:57.852Z,46.23
2017-11-16T23:38:27.471Z,45.57
2017-11-16T23:40:57.071Z,45.70
2017-11-16T23:43:26.678Z,47.00
2017-11-16T23:45:56.295Z,42.87
2017-11-16T23:48:25.162Z,45.50
2017-11-16T23:50:54.912Z,46.30
2017-11-16T23:53:24.424Z,47.27
2017-11-16T23:55:53.272Z,47.60
2017-11-16T23:58:23.319Z,45.57
